Shady Hills, Florida
Current Conditions -  °F | °C
As of 6:10 PM on Tuesday 25 Nov 2014 (Local Time) from KBKV Reporting Station
Thunderstorm Thunderstorm  
Wind Chill: 69°   Ceiling: 4600
Heat Index: 69°   Visibility: 6mi
Dew Point: 69°   Wind: 0mph
Humidity: 100%   Direction: NA
Pressure: 29.9"   Gusts: NA
Location:  28.3839°N, 82.4977°W
Report Text: KBKV 252310Z AUTO 00000KT 6SM +TSRA BR FEW017 BKN046 OVC090 21/21 A2990 RMK AO2 LTG DSNT ALQDS TSB06 P0013 T02060206
Loading
Personal Weather Stations






























Interactive Weather Map New forecast layout! Learn more

10-Day Weather Forecast

Advertisements
Track Severe Weather on mobile